Airfield :
LOGIN :

Register | Disclaimer

   EN    FR    IT 

 










Legend :    VFR   Marginal VFR   IFR   Intensive IFR   Very Intensive IFR
Visi :
Ceiling :
>= 8 km
>= 3000ft
5 to 8 km
1000 to 3000 ft
1500m to 5 km
500 to 1000 ft
800 to 1500m
200 to 500 ft
< 800m
< 200 ft
Symbols :   Thunderstorms  Fog  Heavy snow  Heavy precipitations  Wind > 20 kt
SIGMETs :     Misc.  Thunderstorms  Icing  Turbulence  Mountain Waves  Volcanic Ashes







- Airport Elevation : 468 ft
- IATA code : GRO


LEGE - Girona Costa Brava

CURRENT METAR :
  • 251800Z 19013KT 9999 SCT030 16/11 Q1005

EXPIRED METARs :
  • 251730Z 19015KT 170V240 9999 FEW030 17/11 Q1005
  • 251700Z 20014KT 170V230 9999 FEW030 17/10 Q1005
  • 251630Z 20020KT 9999 FEW030 17/11 Q1005
  • 251600Z 20020KT 170V230 9999 FEW030 18/11 Q1005
  • 251530Z 20018KT 170V230 9999 FEW030 19/11 Q1005

TAF TAF LEGE
Valid from the 25 at 18:00 until the 26 at 18:00 UTC


251700Z 2518/2618 18015KT 9999 FEW020 TX17/2612Z TN10/2606Z
BECMG 2521/2523 VRB05KT SCT020
TEMPO 2600/2615 3000 RA BR BKN008
BECMG 2611/2613 02010KT
No reported NOTAMs for that airfield.
2 SIGMETs reported for the Barcelona FIR (LECB) :
 
Embedded thunderstorms
LECB SIGMET 3 VALID 251800/252000 LEVA
LECB BARCELONA FIR/UIR EMBD TS OBS AT 1742Z W OF LINE N42 E00140 - N39 W00002 TOP FL340 MOV NE NC=
Embedded thunderstorms
LECB SIGMET 2 VALID 251545/251800 LEVA
LECB BARCELONA FIR/UIR EMBD TS OBS AT 1540Z W OF LINE N4220 E00220 - N39 W00050 TOP FL340 MOV NE NC=



MET'MAP, your aeronautical weather chart ! - Copyright ORBIFLY December 2007 - Disclaimer

ORBIFLY MET'MAP TEAM :

Programming & Development : Alexandra Zaïnal
Concept & Development : Baudouin d'Aumeries
Co-Development & Prog : Marc-Olivier Méhu
Technical & hardware support : Manuel Goepfert

Contact : metmap@orbifly.com




SOURCES & CREDITS :

   NOAA